createdAt,value
2018-12-26T00:01:21.311Z,28.10
2018-12-26T00:04:30.905Z,24.17
2018-12-26T00:07:19.295Z,24.47
2018-12-26T00:10:07.333Z,24.27
2018-12-26T00:12:55.471Z,24.90
2018-12-26T00:16:04.643Z,24.50
2018-12-26T00:18:52.672Z,28.50
2018-12-26T00:22:01.331Z,26.00
2018-12-26T00:24:49.216Z,24.20
2018-12-26T00:27:37.265Z,25.83
2018-12-26T00:30:25.293Z,25.08
2018-12-26T00:33:13.284Z,28.33
2018-12-26T00:36:02.007Z,24.67
2018-12-26T00:38:51.484Z,26.10
2018-12-26T00:41:58.719Z,24.20
2018-12-26T00:44:46.589Z,26.00
2018-12-26T00:50:46.031Z,23.47
2018-12-26T00:56:41.121Z,26.35
2018-12-26T00:59:28.976Z,23.07
2018-12-26T01:02:16.871Z,24.60
2018-12-26T01:04:47.990Z,24.87
2018-12-26T01:07:56.600Z,25.57
2018-12-26T01:10:44.465Z,24.95
2018-12-26T01:13:33.419Z,25.20
2018-12-26T01:16:21.504Z,24.20
2018-12-26T01:19:11.021Z,23.13
2018-12-26T01:25:06.691Z,23.38
2018-12-26T01:27:39.459Z,24.32
2018-12-26T01:30:46.662Z,26.23
2018-12-26T01:33:34.562Z,23.40
2018-12-26T01:36:22.433Z,24.85
2018-12-26T01:39:06.293Z,25.53
2018-12-26T01:41:47.094Z,24.77
2018-12-26T01:44:27.754Z,23.87
2018-12-26T01:47:10.272Z,24.20
2018-12-26T01:49:51.128Z,23.13
2018-12-26T01:52:32.878Z,25.47
2018-12-26T01:55:13.651Z,24.90
2018-12-26T01:57:57.688Z,25.60
2018-12-26T02:00:38.198Z,27.53
2018-12-26T02:03:19.520Z,25.40
2018-12-26T02:06:00.739Z,24.20
2018-12-26T02:08:42.151Z,23.93
2018-12-26T02:11:23.043Z,23.43
2018-12-26T02:13:51.840Z,22.77
2018-12-26T02:17:00.420Z,23.90
2018-12-26T02:19:48.317Z,23.90
2018-12-26T02:22:36.172Z,23.23
2018-12-26T02:25:24.172Z,22.93
2018-12-26T02:28:33.036Z,24.80
2018-12-26T02:31:20.955Z,24.10
2018-12-26T02:34:08.823Z,22.47
2018-12-26T02:37:16.040Z,23.97
2018-12-26T02:40:02.821Z,25.07
2018-12-26T02:42:43.787Z,25.20
2018-12-26T02:48:04.841Z,24.07
2018-12-26T02:50:54.406Z,24.87
2018-12-26T02:53:42.410Z,21.27
2018-12-26T02:56:30.382Z,22.83
2018-12-26T02:59:18.268Z,23.90
2018-12-26T03:02:25.498Z,22.02
2018-12-26T03:05:13.433Z,22.33
2018-12-26T03:08:01.592Z,22.43
2018-12-26T03:11:10.427Z,24.77
2018-12-26T03:13:58.487Z,22.83
2018-12-26T03:16:49.484Z,22.45
2018-12-26T03:19:37.406Z,22.53
2018-12-26T03:22:25.304Z,24.53
2018-12-26T03:25:13.620Z,23.57
2018-12-26T03:28:22.206Z,22.43
2018-12-26T03:31:10.100Z,22.90
2018-12-26T03:34:01.370Z,24.10
2018-12-26T03:36:51.424Z,22.47
2018-12-26T03:39:39.307Z,25.20
2018-12-26T03:42:47.935Z,23.17
2018-12-26T03:45:29.137Z,22.62
2018-12-26T03:48:09.854Z,22.37
2018-12-26T03:50:59.319Z,22.90
2018-12-26T03:53:47.240Z,24.87
2018-12-26T03:56:37.008Z,22.70
2018-12-26T03:59:24.875Z,23.17
2018-12-26T04:02:12.780Z,22.47
2018-12-26T04:05:01.060Z,20.87
2018-12-26T04:08:08.391Z,21.10
2018-12-26T04:10:56.251Z,22.07
2018-12-26T04:13:44.730Z,20.70
2018-12-26T04:16:53.352Z,21.13
2018-12-26T04:19:41.297Z,20.77
2018-12-26T04:22:29.253Z,20.53
2018-12-26T04:25:38.490Z,20.80
2018-12-26T04:28:27.664Z,18.85
2018-12-26T04:31:15.584Z,19.67
2018-12-26T04:34:03.606Z,20.33
2018-12-26T04:36:51.548Z,27.13
2018-12-26T04:39:58.771Z,21.07
2018-12-26T04:42:43.997Z,19.90
2018-12-26T04:45:24.817Z,20.57
2018-12-26T04:48:11.671Z,19.30
2018-12-26T04:50:56.525Z,18.80
2018-12-26T04:53:37.403Z,19.30
2018-12-26T04:56:21.054Z,20.13
2018-12-26T04:59:01.396Z,19.27
2018-12-26T05:01:45.066Z,18.63
2018-12-26T05:04:26.260Z,19.07
2018-12-26T05:07:10.341Z,20.30
2018-12-26T05:09:52.485Z,20.23
2018-12-26T05:12:33.289Z,19.10
2018-12-26T05:15:13.709Z,17.63
2018-12-26T05:17:56.111Z,19.90
2018-12-26T05:20:36.821Z,18.70
2018-12-26T05:23:19.407Z,18.90
2018-12-26T05:25:58.344Z,19.40
2018-12-26T05:28:46.244Z,18.75
2018-12-26T05:31:36.461Z,20.63
2018-12-26T05:34:45.697Z,18.70
2018-12-26T05:37:33.902Z,21.07
2018-12-26T05:40:21.796Z,19.37
2018-12-26T05:42:50.433Z,18.70
2018-12-26T05:45:39.073Z,18.67
2018-12-26T05:48:46.247Z,18.20
2018-12-26T05:51:36.083Z,18.73
2018-12-26T05:54:25.845Z,18.43
2018-12-26T05:57:15.226Z,18.70
2018-12-26T06:00:04.663Z,19.73
2018-12-26T06:03:13.402Z,16.40
2018-12-26T06:06:01.376Z,15.97
2018-12-26T06:08:49.256Z,18.07
2018-12-26T06:11:39.417Z,18.50
2018-12-26T06:14:28.853Z,17.30
2018-12-26T06:17:17.145Z,18.12
2018-12-26T06:20:05.190Z,15.87
2018-12-26T06:22:57.341Z,17.70
2018-12-26T06:25:47.913Z,17.53
2018-12-26T06:28:17.081Z,17.50
2018-12-26T06:31:05.751Z,18.07
2018-12-26T06:34:15.401Z,19.97
2018-12-26T06:37:03.287Z,20.97
2018-12-26T06:39:52.753Z,18.67
2018-12-26T06:42:42.167Z,20.70
2018-12-26T06:45:28.979Z,20.40
2018-12-26T06:48:10.152Z,19.33
2018-12-26T06:50:52.921Z,17.57
2018-12-26T06:53:34.018Z,19.37
2018-12-26T06:56:15.749Z,20.40
2018-12-26T06:58:56.213Z,19.67
2018-12-26T07:01:25.045Z,18.77
2018-12-26T07:04:13.813Z,18.40
2018-12-26T07:07:21.026Z,19.45
2018-12-26T07:10:08.935Z,17.93
2018-12-26T07:12:57.726Z,19.45
2018-12-26T07:16:06.348Z,20.93
2018-12-26T07:18:54.219Z,18.27
2018-12-26T07:21:44.091Z,17.33
2018-12-26T07:24:31.990Z,19.90
2018-12-26T07:27:20.169Z,19.87
2018-12-26T07:30:28.824Z,20.00
2018-12-26T07:33:16.706Z,20.50
2018-12-26T07:36:04.641Z,21.07
2018-12-26T07:39:11.863Z,19.82
2018-12-26T07:41:59.745Z,19.00
2018-12-26T07:44:42.051Z,19.40
2018-12-26T07:47:23.391Z,20.77
2018-12-26T07:50:09.637Z,19.60
2018-12-26T07:52:50.677Z,17.63
2018-12-26T07:55:34.768Z,20.50
2018-12-26T07:58:17.751Z,19.47
2018-12-26T08:00:57.645Z,20.40
2018-12-26T08:03:38.619Z,18.33
2018-12-26T08:06:07.235Z,19.10
2018-12-26T08:09:16.508Z,19.87
2018-12-26T08:12:04.425Z,20.53
2018-12-26T08:14:35.307Z,18.60
2018-12-26T08:17:43.000Z,18.97
2018-12-26T08:20:30.884Z,19.60
2018-12-26T08:23:16.789Z,19.30
2018-12-26T08:25:57.991Z,17.70
2018-12-26T08:28:46.547Z,18.00
2018-12-26T08:31:36.922Z,18.10
2018-12-26T08:34:26.582Z,17.60
2018-12-26T08:37:14.558Z,17.97
2018-12-26T08:40:02.529Z,15.43
2018-12-26T08:42:50.490Z,17.47
2018-12-26T08:45:34.587Z,17.50
2018-12-26T08:48:13.957Z,17.42
2018-12-26T08:51:21.173Z,15.47
2018-12-26T08:54:09.155Z,18.57
2018-12-26T08:56:57.055Z,16.10
2018-12-26T09:00:06.196Z,17.70
2018-12-26T09:02:54.139Z,15.40
2018-12-26T09:05:41.984Z,15.03
2018-12-26T09:08:29.936Z,16.27
2018-12-26T09:11:37.159Z,17.57
2018-12-26T09:14:25.169Z,15.87
2018-12-26T09:17:13.356Z,14.03
2018-12-26T09:20:20.543Z,14.50
2018-12-26T09:23:09.475Z,15.30
2018-12-26T09:26:19.018Z,14.60
2018-12-26T09:29:06.908Z,15.37
2018-12-26T09:31:56.327Z,17.47
2018-12-26T09:34:44.206Z,14.10
2018-12-26T09:37:32.156Z,16.20
2018-12-26T09:40:20.083Z,16.57
2018-12-26T09:43:27.138Z,14.53
2018-12-26T09:46:15.236Z,14.63
2018-12-26T09:49:03.416Z,14.10
2018-12-26T09:52:10.628Z,15.50
2018-12-26T09:54:59.375Z,17.90
2018-12-26T09:57:47.292Z,14.47
2018-12-26T10:00:36.450Z,14.60
2018-12-26T10:03:43.760Z,16.25
2018-12-26T10:06:52.534Z,13.80
2018-12-26T10:09:34.778Z,12.97
2018-12-26T10:12:15.501Z,14.90
2018-12-26T10:15:27.949Z,14.20
2018-12-26T10:18:36.765Z,14.47
2018-12-26T10:21:24.756Z,12.40
2018-12-26T10:24:05.484Z,13.07
2018-12-26T10:29:35.407Z,12.82
2018-12-26T10:32:16.487Z,11.70
2018-12-26T10:37:52.461Z,14.43
2018-12-26T10:41:02.137Z,12.53
2018-12-26T10:43:50.025Z,12.77
2018-12-26T10:47:04.999Z,14.03
2018-12-26T10:49:53.993Z,12.87
2018-12-26T10:52:43.665Z,14.98
2018-12-26T10:55:52.389Z,14.93
2018-12-26T10:58:41.997Z,14.60
2018-12-26T11:01:11.781Z,15.37
2018-12-26T11:04:19.629Z,14.60
2018-12-26T11:07:07.589Z,17.33
2018-12-26T11:09:55.707Z,16.70
2018-12-26T11:13:05.509Z,15.90
2018-12-26T11:15:53.583Z,16.80
2018-12-26T11:18:41.757Z,16.90
2018-12-26T11:21:50.517Z,17.47
2018-12-26T11:24:19.170Z,14.97
2018-12-26T11:27:07.665Z,14.77
2018-12-26T11:30:16.419Z,13.83
2018-12-26T11:33:04.428Z,13.77
2018-12-26T11:35:54.026Z,13.93
2018-12-26T11:38:43.515Z,13.53
2018-12-26T11:41:33.482Z,13.83
2018-12-26T11:44:21.518Z,16.03
2018-12-26T11:47:09.402Z,15.30
2018-12-26T11:49:42.229Z,12.87
2018-12-26T11:52:23.092Z,14.38
2018-12-26T11:57:55.006Z,15.13
2018-12-26T12:00:36.000Z,15.38
2018-12-26T12:03:20.526Z,13.87
2018-12-26T12:06:01.088Z,14.53
2018-12-26T12:11:23.365Z,16.20
2018-12-26T12:16:46.434Z,21.20
2018-12-26T12:19:15.825Z,14.53
2018-12-26T12:22:23.089Z,16.30
2018-12-26T12:25:10.977Z,14.20
2018-12-26T12:27:58.941Z,13.18
2018-12-26T12:31:06.278Z,15.33
2018-12-26T12:33:55.808Z,12.83
2018-12-26T12:36:45.750Z,14.83
2018-12-26T12:39:54.817Z,13.33
2018-12-26T12:42:42.782Z,14.07
2018-12-26T12:45:30.721Z,12.93
2018-12-26T12:48:18.682Z,12.23
2018-12-26T12:51:09.460Z,13.27
2018-12-26T12:54:18.106Z,10.10
2018-12-26T12:57:06.050Z,10.80
2018-12-26T12:59:55.442Z,10.00
2018-12-26T13:02:43.343Z,10.00
2018-12-26T13:05:31.246Z,11.40
2018-12-26T13:08:19.118Z,8.67
2018-12-26T13:11:07.062Z,8.23
2018-12-26T13:14:14.266Z,8.43
2018-12-26T13:17:03.684Z,6.75
2018-12-26T13:19:51.865Z,8.50
2018-12-26T13:22:40.039Z,6.73
2018-12-26T13:25:29.954Z,9.47
2018-12-26T13:28:19.383Z,8.37
2018-12-26T13:31:26.810Z,7.53
2018-12-26T13:34:14.738Z,7.93
2018-12-26T13:37:02.698Z,7.80
2018-12-26T13:40:09.916Z,9.90
2018-12-26T13:42:59.755Z,10.50
2018-12-26T13:45:49.304Z,10.40
2018-12-26T13:48:34.524Z,9.90
2018-12-26T13:51:15.004Z,10.20
2018-12-26T13:56:49.887Z,11.57
2018-12-26T13:59:30.330Z,11.50
2018-12-26T14:04:53.546Z,11.30
2018-12-26T14:07:37.022Z,11.95
2018-12-26T14:10:17.426Z,11.17
2018-12-26T14:13:50.474Z,12.40
2018-12-26T14:16:33.776Z,12.90
2018-12-26T14:19:14.576Z,12.23
2018-12-26T14:21:43.503Z,12.00
2018-12-26T14:24:15.606Z,12.80
2018-12-26T14:26:49.965Z,11.50
2018-12-26T14:29:14.183Z,12.37
2018-12-26T14:31:44.549Z,12.80
2018-12-26T14:34:17.486Z,11.57
2018-12-26T14:36:51.742Z,10.63
2018-12-26T14:39:26.088Z,10.40
2018-12-26T14:41:58.182Z,11.47
2018-12-26T14:44:29.018Z,10.00
2018-12-26T14:46:56.802Z,11.73
2018-12-26T14:49:26.704Z,10.93
2018-12-26T14:51:59.214Z,10.80
2018-12-26T14:54:34.940Z,11.33
2018-12-26T14:57:07.172Z,10.57
2018-12-26T14:59:40.825Z,11.03
2018-12-26T15:02:11.489Z,10.77
2018-12-26T15:04:39.561Z,10.27
2018-12-26T15:07:09.890Z,9.73
2018-12-26T15:09:42.513Z,10.83
2018-12-26T15:12:16.011Z,10.10
2018-12-26T15:14:45.721Z,9.10
2018-12-26T15:17:14.165Z,11.20
2018-12-26T15:19:44.647Z,11.88
2018-12-26T15:22:17.057Z,12.77
2018-12-26T15:24:51.000Z,12.87
2018-12-26T15:27:20.288Z,12.43
2018-12-26T15:29:48.811Z,14.50
2018-12-26T15:32:19.728Z,15.17
2018-12-26T15:34:51.423Z,15.63
2018-12-26T15:37:19.941Z,16.97
2018-12-26T15:39:50.527Z,15.95
2018-12-26T15:42:21.679Z,16.37
2018-12-26T15:44:53.965Z,16.27
2018-12-26T15:47:26.612Z,18.30
2018-12-26T15:49:57.121Z,18.03
2018-12-26T15:52:25.383Z,16.85
2018-12-26T15:54:54.511Z,17.40
2018-12-26T15:57:29.631Z,17.10
2018-12-26T16:00:02.626Z,18.42
2018-12-26T16:02:35.622Z,18.63
2018-12-26T16:05:08.433Z,19.00
2018-12-26T16:07:37.061Z,18.03
2018-12-26T16:10:07.015Z,18.80
2018-12-26T16:12:37.854Z,17.40
2018-12-26T16:15:10.522Z,20.57
2018-12-26T16:17:43.957Z,24.50
2018-12-26T16:20:13.685Z,20.60
2018-12-26T16:22:42.276Z,21.73
2018-12-26T16:25:12.479Z,21.37
2018-12-26T16:27:45.488Z,19.83
2018-12-26T16:30:18.601Z,19.17
2018-12-26T16:32:48.603Z,19.33
2018-12-26T16:35:17.077Z,18.93
2018-12-26T16:37:47.299Z,18.20
2018-12-26T16:40:20.320Z,19.23
2018-12-26T16:42:53.207Z,59.30
2018-12-26T16:45:21.811Z,18.60
2018-12-26T16:47:50.360Z,16.70
2018-12-26T16:50:26.953Z,18.50
2018-12-26T16:52:56.467Z,20.27
2018-12-26T16:55:28.509Z,17.93
2018-12-26T16:58:04.038Z,23.97
2018-12-26T17:00:36.420Z,25.50
2018-12-26T17:03:13.563Z,24.43
2018-12-26T17:05:35.077Z,17.60
2018-12-26T17:08:05.328Z,15.87
2018-12-26T17:10:38.227Z,19.17
2018-12-26T17:13:13.547Z,18.17
2018-12-26T17:15:46.620Z,17.90
2018-12-26T17:18:19.112Z,19.50
2018-12-26T17:20:48.902Z,17.60
2018-12-26T17:23:17.349Z,19.80
2018-12-26T17:25:47.529Z,19.93
2018-12-26T17:28:20.217Z,18.90
2018-12-26T17:30:53.633Z,18.10
2018-12-26T17:33:23.599Z,18.80
2018-12-26T17:35:52.001Z,19.13
2018-12-26T17:38:21.531Z,19.17
2018-12-26T17:40:54.550Z,19.40
2018-12-26T17:43:25.508Z,18.10
2018-12-26T17:45:53.253Z,16.27
2018-12-26T17:48:23.101Z,16.97
2018-12-26T17:50:55.369Z,16.67
2018-12-26T17:53:33.036Z,16.13
2018-12-26T17:56:19.687Z,15.80
2018-12-26T17:59:05.891Z,14.70
2018-12-26T18:01:50.191Z,14.37
2018-12-26T18:04:18.771Z,16.13
2018-12-26T18:06:52.437Z,14.40
2018-12-26T18:09:27.364Z,13.70
2018-12-26T18:12:11.259Z,15.07
2018-12-26T18:14:32.391Z,14.90
2018-12-26T18:17:02.057Z,13.40
2018-12-26T18:19:30.447Z,14.00
2018-12-26T18:22:01.116Z,14.40
2018-12-26T18:24:34.446Z,14.80
2018-12-26T18:27:07.073Z,13.77
2018-12-26T18:29:37.555Z,14.53
2018-12-26T18:32:05.822Z,15.98
2018-12-26T18:34:37.007Z,18.90
2018-12-26T18:37:11.217Z,18.10
2018-12-26T18:39:43.754Z,18.57
2018-12-26T18:42:14.714Z,15.63
2018-12-26T18:44:43.927Z,16.20
2018-12-26T18:47:12.512Z,17.33
2018-12-26T18:49:44.753Z,17.77
2018-12-26T18:52:16.723Z,16.17
2018-12-26T18:54:47.003Z,15.50
2018-12-26T18:57:15.631Z,15.07
2018-12-26T18:59:46.827Z,22.07
2018-12-26T19:02:19.077Z,21.90
2018-12-26T19:04:51.932Z,16.40
2018-12-26T19:07:22.094Z,15.17
2018-12-26T19:09:50.707Z,16.00
2018-12-26T19:12:20.511Z,14.63
2018-12-26T19:14:53.244Z,14.93
2018-12-26T19:17:23.601Z,19.27
2018-12-26T19:19:52.708Z,17.73
2018-12-26T19:22:21.530Z,16.97
2018-12-26T19:24:54.254Z,16.63
2018-12-26T19:27:27.163Z,16.17
2018-12-26T19:29:59.476Z,16.52
2018-12-26T19:32:25.866Z,15.08
2018-12-26T19:34:55.750Z,16.73
2018-12-26T19:37:28.145Z,18.40
2018-12-26T19:39:57.300Z,17.90
2018-12-26T19:42:26.384Z,17.77
2018-12-26T19:44:55.353Z,18.15
2018-12-26T19:47:28.922Z,19.33
2018-12-26T19:50:04.862Z,17.93
2018-12-26T19:52:30.572Z,18.97
2018-12-26T19:54:59.121Z,17.13
2018-12-26T19:57:31.672Z,15.80
2018-12-26T20:00:04.566Z,16.10
2018-12-26T20:02:37.819Z,17.83
2018-12-26T20:05:07.747Z,19.30
2018-12-26T20:07:36.227Z,19.07
2018-12-26T20:10:08.003Z,17.62
2018-12-26T20:12:40.188Z,17.73
2018-12-26T20:15:13.963Z,15.87
2018-12-26T20:17:46.716Z,16.70
2018-12-26T20:20:17.398Z,22.85
2018-12-26T20:22:46.691Z,18.53
2018-12-26T20:25:15.464Z,18.53
2018-12-26T20:27:47.826Z,17.87
2018-12-26T20:30:21.982Z,18.83
2018-12-26T20:32:55.388Z,18.40
2018-12-26T20:35:27.198Z,19.57
2018-12-26T20:37:54.210Z,19.30
2018-12-26T20:40:24.390Z,19.63
2018-12-26T20:42:56.859Z,17.80
2018-12-26T20:45:28.654Z,18.20
2018-12-26T20:47:58.138Z,16.80
2018-12-26T20:50:29.858Z,19.23
2018-12-26T20:52:59.128Z,20.37
2018-12-26T20:55:31.594Z,19.83
2018-12-26T20:58:04.918Z,19.27
2018-12-26T21:00:33.354Z,18.83
2018-12-26T21:03:03.272Z,19.00
2018-12-26T21:05:34.031Z,21.50
2018-12-26T21:08:06.562Z,19.67
2018-12-26T21:10:39.456Z,18.47
2018-12-26T21:13:07.941Z,18.67
2018-12-26T21:15:36.714Z,16.67
2018-12-26T21:18:10.309Z,18.23
2018-12-26T21:20:42.143Z,17.40
2018-12-26T21:23:14.827Z,19.03
2018-12-26T21:25:46.670Z,18.77
2018-12-26T21:28:13.516Z,20.33
2018-12-26T21:30:44.799Z,20.23
2018-12-26T21:33:17.856Z,19.47
2018-12-26T21:35:50.031Z,20.40
2018-12-26T21:38:23.738Z,22.52
2018-12-26T21:40:53.571Z,20.25
2018-12-26T21:43:23.091Z,20.67
2018-12-26T21:45:52.628Z,20.90
2018-12-26T21:48:25.703Z,21.30
2018-12-26T21:50:58.492Z,18.13
2018-12-26T21:53:28.218Z,19.80
2018-12-26T21:55:56.701Z,20.27
2018-12-26T21:58:26.984Z,19.97
2018-12-26T22:01:01.134Z,20.40
2018-12-26T22:03:33.587Z,18.03
2018-12-26T22:06:07.112Z,18.10
2018-12-26T22:08:37.328Z,19.17
2018-12-26T22:11:05.802Z,19.50
2018-12-26T22:13:35.896Z,18.43
2018-12-26T22:16:10.006Z,19.47
2018-12-26T22:18:43.586Z,17.97
2018-12-26T22:21:15.827Z,18.33
2018-12-26T22:23:45.596Z,18.57
2018-12-26T22:26:14.475Z,18.62
2018-12-26T22:28:43.982Z,19.90
2018-12-26T22:31:16.757Z,20.27
2018-12-26T22:33:49.898Z,18.27
2018-12-26T22:36:18.324Z,19.63
2018-12-26T22:38:46.780Z,19.53
2018-12-26T22:41:18.972Z,19.67
2018-12-26T22:43:51.574Z,20.07
2018-12-26T22:46:21.849Z,19.90
2018-12-26T22:48:50.329Z,18.77
2018-12-26T22:51:20.363Z,19.97
2018-12-26T22:53:52.799Z,19.67
2018-12-26T22:56:26.263Z,19.00
2018-12-26T22:58:56.055Z,18.10
2018-12-26T23:01:24.615Z,19.87
2018-12-26T23:03:55.927Z,18.10
2018-12-26T23:06:29.085Z,17.30
2018-12-26T23:09:01.789Z,17.50
2018-12-26T23:11:37.853Z,19.23
2018-12-26T23:14:10.684Z,18.53
2018-12-26T23:16:42.932Z,17.40
2018-12-26T23:19:17.671Z,18.20
2018-12-26T23:21:50.796Z,18.60
2018-12-26T23:24:19.248Z,17.53
2018-12-26T23:26:49.628Z,20.30
2018-12-26T23:29:19.832Z,18.37
2018-12-26T23:31:52.161Z,18.53
2018-12-26T23:34:25.252Z,20.40
2018-12-26T23:36:53.686Z,19.47
2018-12-26T23:39:22.140Z,18.73
2018-12-26T23:41:53.878Z,18.13
2018-12-26T23:44:27.040Z,19.00
2018-12-26T23:47:04.100Z,17.23
2018-12-26T23:49:36.967Z,17.67
2018-12-26T23:52:09.582Z,17.30
2018-12-26T23:54:44.640Z,17.50
2018-12-26T23:57:18.701Z,18.23
2018-12-26T23:59:52.793Z,16.53
